Time;durP1;ratioP1;P1;durP2;ratioP2;P2;SDS_P1;SDS_P2;PMS_P1;PMS_P2;Temp;Humidity;BMP_temperature;BMP_pressure;BME280_temperature;BME280_humidity;BME280_pressure;Samples;Min_cycle;Max_cycle;Signal;HPM_P1;HPM_P2
2024/03/20 00:01:30;;;;;;;11.82;6.30;;;8.50;74.50;;;;;;5034503;28;20033;-69
2024/03/20 00:03:56;;;;;;;14.52;7.15;;;8.50;75.10;;;;;;5037348;28;20024;-68
2024/03/20 00:06:23;;;;;;;13.27;6.80;;;8.40;76.10;;;;;;5042600;28;20056;-68
2024/03/20 00:08:48;;;;;;;13.50;7.07;;;8.50;75.80;;;;;;5041546;28;20145;-68
2024/03/20 00:11:14;;;;;;;12.90;6.35;;;8.40;75.60;;;;;;5039974;28;20033;-70
2024/03/20 00:13:40;;;;;;;11.75;6.85;;;8.40;75.70;;;;;;5039402;28;20039;-69
2024/03/20 00:16:06;;;;;;;11.52;6.15;;;8.40;75.90;;;;;;5040945;28;20025;-69
2024/03/20 00:18:32;;;;;;;10.77;6.40;;;8.40;75.10;;;;;;5038222;28;20037;-69
2024/03/20 00:20:57;;;;;;;15.02;7.47;;;8.40;74.70;;;;;;5038945;28;20037;-68
2024/03/20 00:23:23;;;;;;;13.95;7.18;;;8.40;73.90;;;;;;5038475;28;20021;-68
2024/03/20 00:25:50;;;;;;;11.57;6.93;;;8.30;73.70;;;;;;5039115;28;20025;-69
2024/03/20 00:28:15;;;;;;;10.98;6.25;;;8.30;74.10;;;;;;5036009;28;20104;-68
2024/03/20 00:30:41;;;;;;;10.15;6.50;;;8.30;73.90;;;;;;5040136;28;20039;-68
2024/03/20 00:33:07;;;;;;;15.35;7.32;;;8.30;73.70;;;;;;5040372;28;20036;-68
2024/03/20 00:35:33;;;;;;;13.23;7.25;;;8.30;75.40;;;;;;5039038;28;20029;-69
2024/03/20 00:38:00;;;;;;;13.68;6.75;;;8.30;76.60;;;;;;5038672;28;20114;-68
2024/03/20 00:40:26;;;;;;;13.27;7.53;;;8.20;76.70;;;;;;5040949;28;20818;-68
2024/03/20 00:42:51;;;;;;;9.88;5.80;;;8.10;77.00;;;;;;5043677;28;20029;-68
2024/03/20 00:45:17;;;;;;;14.88;7.10;;;8.00;77.50;;;;;;5043283;28;20048;-68
2024/03/20 00:47:43;;;;;;;12.82;6.60;;;7.90;78.10;;;;;;5047307;28;20455;-67
2024/03/20 00:50:09;;;;;;;11.85;6.88;;;7.80;78.00;;;;;;5041909;28;20044;-68
2024/03/20 00:52:35;;;;;;;11.88;6.82;;;7.70;77.60;;;;;;5042496;28;20111;-68
2024/03/20 00:55:02;;;;;;;14.65;7.72;;;7.60;77.60;;;;;;5044960;28;20040;-69
2024/03/20 00:57:28;;;;;;;11.70;7.43;;;7.60;78.90;;;;;;5043080;28;20487;-68
2024/03/20 00:59:54;;;;;;;13.73;7.25;;;7.50;79.40;;;;;;5042979;28;20039;-69
2024/03/20 01:02:19;;;;;;;13.35;7.97;;;7.40;79.80;;;;;;5042207;28;20028;-69
2024/03/20 01:04:45;;;;;;;14.90;7.53;;;7.30;80.20;;;;;;5041926;28;20033;-68
2024/03/20 01:07:11;;;;;;;14.32;6.88;;;7.30;80.30;;;;;;5041625;28;20140;-68
2024/03/20 01:09:36;;;;;;;12.80;7.40;;;7.30;79.30;;;;;;5043360;28;20033;-68
2024/03/20 01:12:02;;;;;;;12.60;6.85;;;7.20;78.80;;;;;;5038297;28;20044;-69
2024/03/20 01:14:28;;;;;;;13.18;6.53;;;7.30;79.30;;;;;;5042120;28;20033;-68
2024/03/20 01:16:54;;;;;;;13.05;7.20;;;7.20;79.30;;;;;;5041796;28;20037;-69
2024/03/20 01:19:20;;;;;;;16.48;8.10;;;7.20;79.00;;;;;;5043305;28;20576;-68
2024/03/20 01:21:46;;;;;;;14.93;7.72;;;7.20;79.00;;;;;;5045552;28;20404;-68
2024/03/20 01:24:12;;;;;;;16.60;8.02;;;7.10;78.80;;;;;;5043112;28;20032;-68
2024/03/20 01:26:38;;;;;;;12.75;7.20;;;7.10;78.90;;;;;;5042612;28;20033;-68
2024/03/20 01:29:03;;;;;;;11.27;7.10;;;7.00;79.20;;;;;;5043269;28;20539;-68
2024/03/20 01:31:30;;;;;;;13.00;7.07;;;7.00;79.20;;;;;;5041971;28;20850;-68
2024/03/20 01:33:55;;;;;;;12.15;6.57;;;6.90;80.10;;;;;;5042756;28;20112;-68
2024/03/20 01:36:21;;;;;;;14.43;7.88;;;6.90;80.20;;;;;;5040171;28;20033;-68
2024/03/20 01:38:48;;;;;;;14.15;8.13;;;6.80;80.30;;;;;;5040706;28;20111;-68
2024/03/20 01:41:14;;;;;;;15.25;7.65;;;6.70;81.30;;;;;;5043917;28;20043;-67
2024/03/20 01:43:40;;;;;;;14.45;7.57;;;6.70;80.60;;;;;;5041413;28;20021;-68
2024/03/20 01:46:27;;;;;;;14.52;7.85;;;6.70;80.70;;;;;;5041434;28;20039;-67
2024/03/20 01:48:54;;;;;;;13.27;7.20;;;6.70;80.90;;;;;;5041215;28;20029;-68
2024/03/20 01:51:20;;;;;;;14.90;7.90;;;6.70;80.80;;;;;;5042545;28;20099;-67
2024/03/20 01:53:46;;;;;;;14.93;7.63;;;6.60;81.40;;;;;;5042077;28;20041;-67
2024/03/20 01:56:12;;;;;;;14.85;7.13;;;6.70;81.00;;;;;;5041148;28;20033;-68
2024/03/20 01:58:37;;;;;;;16.38;7.75;;;6.70;80.90;;;;;;5036048;28;20036;-68
2024/03/20 02:01:03;;;;;;;14.50;7.75;;;6.70;80.90;;;;;;5041859;28;20377;-69
2024/03/20 02:03:29;;;;;;;15.90;7.72;;;6.70;80.80;;;;;;5041650;28;20555;-69
2024/03/20 02:05:55;;;;;;;14.23;7.82;;;6.70;80.80;;;;;;5041911;28;20028;-69
2024/03/20 02:08:21;;;;;;;13.85;7.95;;;6.60;80.90;;;;;;5044368;28;20033;-69
2024/03/20 02:10:47;;;;;;;15.45;7.97;;;6.60;81.00;;;;;;5040066;28;20037;-68
2024/03/20 02:13:12;;;;;;;22.77;9.10;;;6.70;81.30;;;;;;5041007;28;20649;-68
2024/03/20 02:15:38;;;;;;;13.85;7.70;;;6.70;81.30;;;;;;5040427;28;20078;-69
2024/03/20 02:18:04;;;;;;;16.48;8.90;;;6.70;81.20;;;;;;5039819;28;20041;-68
2024/03/20 02:20:31;;;;;;;15.48;7.97;;;6.70;81.70;;;;;;5041501;28;20039;-68
2024/03/20 02:23:00;;;;;;;14.80;7.50;;;6.60;81.90;;;;;;5040857;28;20060;-68
2024/03/20 02:25:30;;;;;;;14.60;7.70;;;6.60;82.30;;;;;;5037624;28;20052;-68
2024/03/20 02:27:57;;;;;;;18.40;7.35;;;6.60;82.50;;;;;;5048847;28;20041;-68
2024/03/20 02:30:24;;;;;;;14.82;7.93;;;6.50;82.40;;;;;;5041159;28;20463;-68
2024/03/20 02:32:50;;;;;;;15.40;7.75;;;6.50;82.40;;;;;;5043974;28;20024;-68
2024/03/20 02:35:16;;;;;;;12.20;7.15;;;6.50;82.80;;;;;;5036942;28;20115;-68
2024/03/20 02:37:42;;;;;;;14.70;7.85;;;6.60;83.00;;;;;;5040408;28;20044;-68
2024/03/20 02:40:09;;;;;;;16.02;8.27;;;6.70;83.10;;;;;;5041557;28;20496;-68
2024/03/20 02:42:35;;;;;;;14.13;7.90;;;6.80;83.30;;;;;;5039763;28;20029;-68
2024/03/20 02:45:00;;;;;;;15.57;8.23;;;6.80;83.40;;;;;;5035947;28;20722;-67
2024/03/20 02:47:26;;;;;;;15.40;7.75;;;6.90;83.50;;;;;;5040313;28;20739;-67
2024/03/20 02:49:56;;;;;;;13.75;7.40;;;6.90;83.90;;;;;;5042257;28;20751;-68
2024/03/20 02:52:22;;;;;;;12.90;7.63;;;7.00;83.90;;;;;;5036796;28;20040;-68
2024/03/20 02:54:48;;;;;;;14.27;7.93;;;6.90;84.10;;;;;;5043023;28;20029;-68
2024/03/20 02:57:14;;;;;;;17.17;8.27;;;7.00;84.50;;;;;;5041327;28;20024;-68
2024/03/20 02:59:40;;;;;;;15.80;8.65;;;6.90;84.60;;;;;;5040045;28;20032;-68
2024/03/20 03:02:05;;;;;;;17.40;8.00;;;6.90;85.00;;;;;;5042173;28;20565;-69
2024/03/20 03:04:31;;;;;;;15.98;7.75;;;6.80;84.60;;;;;;5040407;28;20872;-68
2024/03/20 03:06:57;;;;;;;14.95;8.57;;;6.80;84.70;;;;;;5038140;28;20404;-69
2024/03/20 03:09:24;;;;;;;16.15;8.52;;;6.70;84.60;;;;;;5037602;28;20033;-67
2024/03/20 03:11:50;;;;;;;14.85;8.50;;;6.70;84.60;;;;;;5040536;28;20828;-68
2024/03/20 03:14:17;;;;;;;15.32;7.82;;;6.70;84.50;;;;;;5034769;28;20041;-68
2024/03/20 03:16:43;;;;;;;14.10;8.07;;;6.80;84.40;;;;;;5038038;28;20103;-68
2024/03/20 03:19:09;;;;;;;15.77;7.57;;;6.80;84.10;;;;;;5038678;28;20029;-68
2024/03/20 03:21:36;;;;;;;15.55;8.82;;;6.80;83.90;;;;;;5039913;28;20029;-68
2024/03/20 03:24:06;;;;;;;16.73;8.95;;;6.80;84.00;;;;;;5039771;28;20048;-69
2024/03/20 03:26:32;;;;;;;16.30;8.30;;;6.80;84.50;;;;;;5035853;28;20435;-69
2024/03/20 03:28:58;;;;;;;17.40;8.90;;;6.90;84.10;;;;;;5038300;28;20608;-69
2024/03/20 03:31:24;;;;;;;18.38;8.93;;;6.80;83.90;;;;;;5040572;28;20036;-67
2024/03/20 03:33:50;;;;;;;14.20;8.77;;;6.80;84.20;;;;;;5041533;28;20682;-68
2024/03/20 03:36:16;;;;;;;20.10;9.50;;;6.90;84.40;;;;;;5043888;28;20121;-67
2024/03/20 03:38:41;;;;;;;19.33;8.85;;;6.90;85.30;;;;;;5038330;28;20094;-68
2024/03/20 03:41:07;;;;;;;14.65;8.15;;;6.90;84.40;;;;;;5040081;28;20021;-68
2024/03/20 03:43:33;;;;;;;16.15;8.75;;;7.00;84.50;;;;;;5040203;28;20393;-68
2024/03/20 03:45:59;;;;;;;17.40;9.20;;;6.90;84.30;;;;;;5039433;28;20865;-67
2024/03/20 03:48:26;;;;;;;14.00;8.73;;;7.00;84.40;;;;;;5040757;28;20029;-67
2024/03/20 03:50:52;;;;;;;15.10;8.50;;;6.90;84.20;;;;;;5040240;28;20040;-68
2024/03/20 03:53:18;;;;;;;14.48;7.70;;;7.00;84.40;;;;;;5043608;28;20127;-68
2024/03/20 03:55:45;;;;;;;15.95;9.15;;;7.00;84.60;;;;;;5039149;28;20443;-68
2024/03/20 03:58:11;;;;;;;14.95;8.52;;;7.00;84.70;;;;;;5037421;28;20029;-68
2024/03/20 04:00:36;;;;;;;16.95;8.68;;;7.00;84.50;;;;;;5046280;28;20470;-68
2024/03/20 04:03:03;;;;;;;16.55;8.43;;;6.90;84.30;;;;;;5036994;28;20628;-69
2024/03/20 04:05:33;;;;;;;14.68;8.65;;;6.90;84.50;;;;;;5040728;28;20727;-68
2024/03/20 04:07:59;;;;;;;14.90;8.30;;;6.90;85.30;;;;;;5038181;28;20025;-68
2024/03/20 04:10:25;;;;;;;15.32;8.38;;;6.90;85.20;;;;;;5042717;28;20351;-68
2024/03/20 04:12:51;;;;;;;19.23;9.18;;;6.90;85.50;;;;;;5040836;28;20090;-68
2024/03/20 04:15:17;;;;;;;13.35;8.35;;;7.00;85.60;;;;;;5042848;28;20107;-68
2024/03/20 04:17:43;;;;;;;17.98;8.75;;;7.10;85.60;;;;;;5046727;28;20025;-68
2024/03/20 04:20:12;;;;;;;14.90;7.75;;;7.10;85.90;;;;;;5044585;28;20579;-67
2024/03/20 04:22:39;;;;;;;15.73;8.85;;;7.10;85.50;;;;;;5045395;28;20044;-67
2024/03/20 04:25:05;;;;;;;12.35;8.10;;;7.20;85.50;;;;;;5044353;28;20108;-68
2024/03/20 04:27:32;;;;;;;14.70;7.65;;;7.20;85.50;;;;;;5044645;28;20087;-68
2024/03/20 04:29:58;;;;;;;17.38;8.52;;;7.20;85.50;;;;;;5042709;28;20544;-68
2024/03/20 04:32:25;;;;;;;16.60;9.15;;;7.30;85.40;;;;;;5044830;28;20037;-68
2024/03/20 04:34:51;;;;;;;15.63;8.93;;;7.40;85.40;;;;;;5039021;28;20029;-68
2024/03/20 04:37:17;;;;;;;15.38;7.88;;;7.40;85.30;;;;;;5043458;28;20590;-68
2024/03/20 04:39:43;;;;;;;18.27;8.95;;;7.40;84.90;;;;;;5039530;28;20030;-68
2024/03/20 04:42:09;;;;;;;17.58;8.50;;;7.40;84.80;;;;;;5047264;28;20385;-68
2024/03/20 04:44:35;;;;;;;15.50;8.32;;;7.40;84.60;;;;;;5046534;28;20704;-67
2024/03/20 04:47:01;;;;;;;15.45;8.05;;;7.40;84.40;;;;;;5043727;28;20028;-67
2024/03/20 04:49:26;;;;;;;15.68;8.98;;;7.40;84.50;;;;;;5041528;28;20123;-68
2024/03/20 04:51:52;;;;;;;16.20;9.23;;;7.40;84.40;;;;;;5045748;28;20033;-68
2024/03/20 04:54:18;;;;;;;16.40;8.30;;;7.40;84.60;;;;;;5044297;28;20082;-68
2024/03/20 04:56:43;;;;;;;18.70;9.18;;;7.40;84.60;;;;;;5042926;28;20132;-68
2024/03/20 04:59:09;;;;;;;14.57;8.23;;;7.40;84.60;;;;;;5044357;28;20040;-68
2024/03/20 05:01:35;;;;;;;20.00;8.60;;;7.50;84.90;;;;;;5044091;28;20043;-68
2024/03/20 05:04:02;;;;;;;20.30;9.30;;;7.40;84.80;;;;;;5042040;28;20082;-69
2024/03/20 05:06:28;;;;;;;19.90;10.05;;;7.40;85.00;;;;;;5041076;28;20022;-68
2024/03/20 05:08:53;;;;;;;17.02;9.50;;;7.40;85.10;;;;;;5038680;28;20397;-68
2024/03/20 05:11:21;;;;;;;15.65;9.07;;;7.40;85.10;;;;;;5044624;28;20793;-68
2024/03/20 05:13:47;;;;;;;20.48;9.48;;;7.40;85.00;;;;;;5040658;28;20749;-67
2024/03/20 05:16:12;;;;;;;17.30;9.13;;;7.30;85.40;;;;;;5041309;28;20028;-68
2024/03/20 05:18:38;;;;;;;17.25;10.15;;;7.30;85.20;;;;;;5043813;28;20035;-68
2024/03/20 05:21:04;;;;;;;17.75;9.52;;;7.40;85.50;;;;;;5045443;28;20502;-68
2024/03/20 05:23:30;;;;;;;20.25;10.93;;;7.40;85.40;;;;;;5043207;28;20035;-69
2024/03/20 05:25:56;;;;;;;18.40;10.20;;;7.40;85.30;;;;;;5039324;28;20032;-68
2024/03/20 05:28:23;;;;;;;14.90;9.00;;;7.40;85.30;;;;;;5040711;28;20504;-68
2024/03/20 05:30:50;;;;;;;18.35;10.27;;;7.40;85.50;;;;;;5041926;28;20789;-68
2024/03/20 05:33:18;;;;;;;17.50;10.32;;;7.30;85.40;;;;;;5040003;28;20768;-68
2024/03/20 05:35:44;;;;;;;17.10;9.85;;;7.40;85.40;;;;;;5041463;28;20028;-67
2024/03/20 05:38:10;;;;;;;17.85;9.15;;;7.50;85.50;;;;;;5042159;28;20036;-68
2024/03/20 05:40:37;;;;;;;18.35;9.52;;;7.50;85.50;;;;;;5041636;28;20032;-68
2024/03/20 05:43:04;;;;;;;16.63;9.27;;;7.50;84.80;;;;;;5047179;28;20504;-68
2024/03/20 05:45:30;;;;;;;16.02;8.65;;;7.50;84.70;;;;;;5043954;28;20536;-68
2024/03/20 05:47:56;;;;;;;16.33;9.05;;;7.50;84.80;;;;;;5040117;28;20113;-68
2024/03/20 05:50:22;;;;;;;16.90;9.32;;;7.60;85.00;;;;;;5047965;28;20102;-68
2024/03/20 05:52:47;;;;;;;18.90;9.63;;;7.50;85.10;;;;;;5043950;28;20040;-68
2024/03/20 05:55:15;;;;;;;16.45;8.85;;;7.40;85.50;;;;;;5041900;28;20397;-68
2024/03/20 05:57:41;;;;;;;18.13;9.68;;;7.40;85.60;;;;;;5046850;28;20040;-68
2024/03/20 06:00:14;;;;;;;18.52;9.38;;;7.40;85.70;;;;;;5040818;28;20022;-69
2024/03/20 06:02:41;;;;;;;17.08;9.85;;;7.50;85.70;;;;;;5041959;28;20152;-68
2024/03/20 06:05:07;;;;;;;16.27;8.77;;;7.60;85.60;;;;;;5041232;28;20112;-69
2024/03/20 06:07:33;;;;;;;17.00;9.77;;;7.60;85.90;;;;;;5044647;28;20048;-68
2024/03/20 06:09:59;;;;;;;19.50;9.25;;;7.70;85.20;;;;;;5041476;28;20033;-68
2024/03/20 06:12:26;;;;;;;22.33;9.38;;;7.70;85.00;;;;;;5041259;28;20728;-68
2024/03/20 06:14:55;;;;;;;17.05;9.23;;;7.60;85.20;;;;;;5040713;28;20036;-68
2024/03/20 06:17:21;;;;;;;16.92;8.57;;;7.60;85.20;;;;;;5038918;28;20032;-68
2024/03/20 06:19:47;;;;;;;17.02;8.90;;;7.60;85.50;;;;;;5043913;28;20036;-68
2024/03/20 06:22:13;;;;;;;17.23;9.65;;;7.50;85.70;;;;;;5044797;28;20028;-68
2024/03/20 06:24:38;;;;;;;18.65;9.07;;;7.50;85.80;;;;;;5044458;28;20034;-69
2024/03/20 06:27:04;;;;;;;14.65;8.23;;;7.60;85.60;;;;;;5041779;28;20104;-69
2024/03/20 06:29:30;;;;;;;16.38;8.57;;;7.70;85.70;;;;;;5041613;28;20105;-69
2024/03/20 06:31:57;;;;;;;16.85;9.00;;;7.80;85.70;;;;;;5039276;28;20163;-68
2024/03/20 06:34:23;;;;;;;17.88;9.57;;;7.90;85.20;;;;;;5042554;28;20033;-68
2024/03/20 06:36:48;;;;;;;17.13;8.93;;;8.00;84.70;;;;;;5042125;28;20062;-68
2024/03/20 06:39:14;;;;;;;18.20;8.48;;;8.00;84.80;;;;;;5043610;28;20567;-68
2024/03/20 06:41:45;;;;;;;20.13;9.18;;;8.00;84.40;;;;;;5041719;28;20048;-68
2024/03/20 06:44:14;;;;;;;18.83;10.00;;;8.20;85.10;;;;;;5041688;28;20071;-68
2024/03/20 06:46:40;;;;;;;15.98;8.75;;;8.30;84.70;;;;;;5040857;28;20032;-68
2024/03/20 06:49:09;;;;;;;15.77;9.85;;;8.30;83.90;;;;;;5043529;28;20029;-68
2024/03/20 06:51:36;;;;;;;18.98;10.13;;;8.40;84.00;;;;;;5041323;28;20040;-68
2024/03/20 06:54:09;;;;;;;17.50;8.70;;;8.40;84.20;;;;;;5040528;28;20044;-69
2024/03/20 06:56:35;;;;;;;22.42;10.18;;;8.50;84.20;;;;;;5040065;28;20524;-68
2024/03/20 06:59:02;;;;;;;21.73;9.20;;;8.60;84.40;;;;;;5039731;28;20036;-69
2024/03/20 07:01:28;;;;;;;19.38;8.82;;;8.60;83.30;;;;;;5041462;28;20122;-69
2024/03/20 07:03:54;;;;;;;19.30;9.60;;;8.70;83.30;;;;;;5038222;28;20520;-68
2024/03/20 07:06:20;;;;;;;17.92;9.48;;;8.80;83.00;;;;;;5046259;28;20028;-68
2024/03/20 07:08:46;;;;;;;20.10;9.45;;;8.90;82.30;;;;;;5041780;28;20756;-72
2024/03/20 07:11:12;;;;;;;20.42;8.75;;;9.00;82.30;;;;;;5042944;28;20069;-72
2024/03/20 07:13:38;;;;;;;16.83;9.70;;;9.00;81.00;;;;;;5041420;28;20396;-72
2024/03/20 07:16:04;;;;;;;16.75;8.90;;;9.10;80.80;;;;;;5039761;28;20029;-72
2024/03/20 07:18:29;;;;;;;16.55;9.32;;;9.30;80.80;;;;;;5040769;28;20576;-72
2024/03/20 07:20:55;;;;;;;13.88;9.18;;;9.50;80.90;;;;;;5039363;28;20041;-72
2024/03/20 07:23:21;;;;;;;15.52;9.27;;;9.60;80.10;;;;;;5041134;28;20049;-72
2024/03/20 07:25:46;;;;;;;16.95;9.18;;;9.70;79.10;;;;;;5040823;28;20053;-72
2024/03/20 07:28:12;;;;;;;20.70;8.88;;;9.70;78.90;;;;;;5044380;28;20067;-72
2024/03/20 07:30:39;;;;;;;19.65;9.40;;;9.80;79.80;;;;;;5041410;28;20040;-72
2024/03/20 07:33:05;;;;;;;14.70;8.88;;;9.70;80.00;;;;;;5040109;28;20029;-73
2024/03/20 07:35:46;;;;;;;18.95;9.77;;;9.90;80.50;;;;;;5040514;28;20029;-73
2024/03/20 07:38:13;;;;;;;21.75;9.68;;;10.10;80.10;;;;;;5040853;28;20463;-72
2024/03/20 07:40:42;;;;;;;15.75;8.82;;;10.50;78.90;;;;;;5041599;28;20039;-72
2024/03/20 07:43:08;;;;;;;19.20;9.70;;;11.00;77.00;;;;;;5040354;28;20030;-72
2024/03/20 07:45:34;;;;;;;16.50;8.68;;;11.50;75.00;;;;;;5041086;28;20021;-72
2024/03/20 07:48:01;;;;;;;16.25;9.27;;;12.00;73.20;;;;;;5043248;28;20116;-72
2024/03/20 07:50:26;;;;;;;16.73;9.25;;;12.60;71.50;;;;;;5037342;28;20789;-72
2024/03/20 07:52:55;;;;;;;18.38;9.10;;;13.10;69.50;;;;;;5033235;28;20029;-72
2024/03/20 07:55:21;;;;;;;16.38;9.20;;;13.50;68.70;;;;;;5039298;28;20025;-72
2024/03/20 07:57:48;;;;;;;15.50;8.85;;;13.80;67.80;;;;;;5040703;28;20476;-72
2024/03/20 08:00:17;;;;;;;16.40;9.13;;;14.30;66.50;;;;;;5039695;28;20111;-73
2024/03/20 08:02:43;;;;;;;14.65;9.30;;;14.60;65.40;;;;;;5042421;28;20025;-72
2024/03/20 08:05:12;;;;;;;14.73;8.93;;;14.80;64.70;;;;;;5039757;28;20108;-73
2024/03/20 08:07:39;;;;;;;14.57;8.57;;;15.00;63.50;;;;;;5039878;28;20032;-72
2024/03/20 08:10:07;;;;;;;15.57;8.95;;;15.20;63.10;;;;;;5039223;28;20021;-73
2024/03/20 08:12:33;;;;;;;17.30;9.55;;;15.40;62.90;;;;;;5040053;28;20037;-73
2024/03/20 08:15:00;;;;;;;14.20;8.68;;;15.50;61.60;;;;;;5038905;28;20039;-75
2024/03/20 08:17:25;;;;;;;15.63;9.23;;;15.60;61.40;;;;;;5038952;28;20481;-75
2024/03/20 08:19:51;;;;;;;17.40;9.23;;;15.60;61.60;;;;;;5035813;28;20043;-74
2024/03/20 08:22:18;;;;;;;18.02;8.65;;;15.50;60.90;;;;;;5040423;28;20029;-74
2024/03/20 08:24:44;;;;;;;17.83;9.25;;;15.40;61.60;;;;;;5039190;28;20677;-74
2024/03/20 08:27:10;;;;;;;16.40;9.48;;;15.30;61.20;;;;;;5039589;28;20039;-74
2024/03/20 08:29:37;;;;;;;19.50;9.43;;;15.20;62.40;;;;;;5038569;28;20029;-73
2024/03/20 08:32:04;;;;;;;15.82;9.50;;;15.10;62.80;;;;;;5040988;28;20029;-71
2024/03/20 08:34:31;;;;;;;16.52;8.70;;;15.10;63.60;;;;;;5039508;28;20037;-71
2024/03/20 08:36:57;;;;;;;15.07;9.48;;;15.20;62.70;;;;;;5035611;28;20516;-71
2024/03/20 08:39:22;;;;;;;14.90;8.93;;;15.20;61.90;;;;;;5038203;28;20091;-71
2024/03/20 08:41:48;;;;;;;17.40;9.20;;;15.30;62.30;;;;;;5041884;28;20499;-71
2024/03/20 08:44:15;;;;;;;17.60;8.68;;;15.30;63.40;;;;;;5038782;28;20512;-71
2024/03/20 08:46:41;;;;;;;15.85;8.93;;;15.10;61.70;;;;;;5042522;28;20554;-72
2024/03/20 08:49:10;;;;;;;14.98;8.40;;;15.10;63.00;;;;;;5038600;28;20480;-72
2024/03/20 08:51:36;;;;;;;11.15;7.75;;;15.30;62.60;;;;;;5041257;28;20515;-72
2024/03/20 08:54:02;;;;;;;16.45;8.45;;;15.40;62.80;;;;;;5037662;28;20041;-71
2024/03/20 08:56:28;;;;;;;11.32;7.18;;;15.60;62.30;;;;;;5038666;28;20047;-72
2024/03/20 08:58:54;;;;;;;12.25;6.95;;;15.90;61.70;;;;;;5038969;28;20025;-72
2024/03/20 09:01:20;;;;;;;12.40;6.78;;;16.40;60.70;;;;;;5043794;28;20064;-71
2024/03/20 09:03:46;;;;;;;12.93;7.18;;;16.90;59.40;;;;;;5043276;28;20029;-72
2024/03/20 09:06:12;;;;;;;13.80;7.90;;;17.30;56.90;;;;;;5043233;28;20079;-72
2024/03/20 09:08:38;;;;;;;14.32;7.40;;;17.60;57.50;;;;;;5046087;28;20128;-72
2024/03/20 09:11:03;;;;;;;10.35;6.80;;;17.80;57.40;;;;;;5038285;28;20063;-74
2024/03/20 09:13:31;;;;;;;15.43;7.55;;;18.30;57.00;;;;;;5043270;28;20025;-71
2024/03/20 09:15:57;;;;;;;10.43;6.88;;;18.60;57.40;;;;;;5042850;28;20424;-72
2024/03/20 09:18:23;;;;;;;9.13;6.30;;;18.80;56.70;;;;;;5043840;28;20063;-73
2024/03/20 09:20:52;;;;;;;14.77;7.28;;;18.80;55.70;;;;;;5043741;28;20515;-72
2024/03/20 09:23:18;;;;;;;13.95;7.25;;;18.40;55.40;;;;;;5042478;28;20033;-72
2024/03/20 09:25:44;;;;;;;10.65;6.75;;;17.90;57.10;;;;;;5040857;28;20063;-72
2024/03/20 09:28:11;;;;;;;13.02;6.95;;;17.60;57.00;;;;;;5040513;28;20629;-72
2024/03/20 09:30:37;;;;;;;13.25;6.75;;;17.60;57.50;;;;;;5043296;28;20166;-72
2024/03/20 09:33:06;;;;;;;12.07;5.90;;;17.80;57.40;;;;;;5042905;28;20391;-72
2024/03/20 09:35:32;;;;;;;9.98;6.55;;;17.80;57.50;;;;;;5039518;28;20036;-72
2024/03/20 09:37:58;;;;;;;12.38;6.35;;;17.70;56.40;;;;;;5042196;28;20039;-72
2024/03/20 09:40:26;;;;;;;12.48;6.10;;;17.60;57.30;;;;;;5043176;28;20858;-72
2024/03/20 09:42:53;;;;;;;10.27;6.00;;;17.50;58.00;;;;;;5042221;28;20056;-72
2024/03/20 09:45:20;;;;;;;9.07;5.78;;;17.60;58.70;;;;;;5041759;28;20021;-71
2024/03/20 09:47:51;;;;;;;12.52;6.20;;;17.90;57.60;;;;;;5041900;28;20033;-72
2024/03/20 09:50:18;;;;;;;10.02;6.07;;;18.00;57.10;;;;;;5041539;28;20029;-72
2024/03/20 09:52:46;;;;;;;10.55;6.13;;;18.20;57.20;;;;;;5040566;28;20042;-71
2024/03/20 09:55:16;;;;;;;9.48;5.65;;;18.10;57.60;;;;;;5041476;28;20044;-71
2024/03/20 09:57:44;;;;;;;8.82;5.15;;;18.20;58.40;;;;;;5039909;28;20045;-71
2024/03/20 10:00:16;;;;;;;11.48;6.05;;;18.20;57.80;;;;;;5044464;28;20035;-72
2024/03/20 10:02:43;;;;;;;10.40;5.55;;;18.10;57.60;;;;;;5043201;28;20029;-72
2024/03/20 10:05:12;;;;;;;11.15;5.97;;;18.50;56.50;;;;;;5039727;28;20021;-71
2024/03/20 10:07:43;;;;;;;10.55;6.00;;;18.70;57.50;;;;;;5040138;28;20037;-71
2024/03/20 10:10:13;;;;;;;10.52;5.78;;;18.80;56.30;;;;;;5042835;28;20025;-72
2024/03/20 10:12:40;;;;;;;10.20;6.13;;;18.90;55.50;;;;;;5043040;28;20130;-71
2024/03/20 10:15:10;;;;;;;8.70;5.47;;;19.10;56.30;;;;;;5045198;28;20636;-72
2024/03/20 10:17:37;;;;;;;11.63;6.18;;;19.40;56.60;;;;;;5041380;28;20032;-72
2024/03/20 10:20:17;;;;;;;10.25;6.03;;;19.70;55.70;;;;;;5039858;28;20033;-71
2024/03/20 10:22:45;;;;;;;8.75;5.65;;;20.40;53.90;;;;;;5034670;28;20495;-72
2024/03/20 10:25:16;;;;;;;9.40;5.80;;;20.70;53.30;;;;;;5040838;28;20785;-73
2024/03/20 10:27:50;;;;;;;11.27;5.68;;;20.80;52.50;;;;;;5044837;28;20029;-72
2024/03/20 10:30:18;;;;;;;10.10;5.78;;;19.90;53.80;;;;;;5042278;28;20442;-72
2024/03/20 10:32:52;;;;;;;10.45;5.78;;;19.50;54.30;;;;;;5038260;28;20083;-71
2024/03/20 10:35:20;;;;;;;13.25;6.75;;;19.50;55.30;;;;;;5043201;28;20838;-72
2024/03/20 10:37:48;;;;;;;11.93;5.75;;;19.70;54.40;;;;;;5042876;28;20028;-73
2024/03/20 10:40:19;;;;;;;9.85;5.68;;;19.60;54.90;;;;;;5040516;28;20036;-72
2024/03/20 10:42:49;;;;;;;12.80;7.10;;;19.40;54.90;;;;;;5042339;28;20746;-72
2024/03/20 10:45:16;;;;;;;12.18;7.07;;;19.10;55.30;;;;;;5040076;28;20033;-72
2024/03/20 10:47:47;;;;;;;11.30;6.47;;;18.90;56.90;;;;;;5039106;28;20025;-71
2024/03/20 10:50:16;;;;;;;11.60;6.15;;;19.20;56.60;;;;;;5039701;28;20026;-72
2024/03/20 10:52:46;;;;;;;10.18;6.13;;;19.20;56.10;;;;;;5042894;28;20028;-72
2024/03/20 10:55:19;;;;;;;10.23;6.30;;;19.20;56.40;;;;;;5041401;28;20032;-72
2024/03/20 10:57:48;;;;;;;11.23;7.15;;;19.30;56.60;;;;;;5037278;28;20036;-72
2024/03/20 11:00:22;;;;;;;12.73;6.90;;;19.60;56.70;;;;;;5041874;28;20079;-72
2024/03/20 11:02:47;;;;;;;11.70;7.07;;;19.40;56.30;;;;;;5041534;28;20033;-72
2024/03/20 11:05:37;;;;;;;12.35;6.22;;;19.20;56.40;;;;;;5038461;28;20450;-73
2024/03/20 11:08:12;;;;;;;11.98;6.78;;;19.40;56.30;;;;;;5036573;28;20438;-72
2024/03/20 11:10:49;;;;;;;11.10;6.18;;;19.50;56.90;;;;;;5042034;28;20036;-74
2024/03/20 11:13:21;;;;;;;14.95;7.47;;;19.10;58.30;;;;;;5039270;28;20454;-73
2024/03/20 11:15:51;;;;;;;11.50;6.47;;;19.30;57.40;;;;;;5037423;28;20110;-73
2024/03/20 11:18:23;;;;;;;13.73;7.45;;;19.60;57.20;;;;;;5041890;28;20029;-72
2024/03/20 11:20:49;;;;;;;15.48;7.63;;;19.30;58.10;;;;;;5041280;28;20029;-72
2024/03/20 11:23:26;;;;;;;12.02;7.25;;;18.90;58.00;;;;;;5039881;28;20029;-72
2024/03/20 11:25:54;;;;;;;11.85;6.30;;;18.90;58.80;;;;;;5035509;28;20029;-72
2024/03/20 11:28:20;;;;;;;10.77;7.20;;;19.00;58.90;;;;;;5041362;28;20324;-72
2024/03/20 11:30:49;;;;;;;16.63;8.60;;;19.00;58.50;;;;;;5042581;28;20033;-76
2024/03/20 11:33:15;;;;;;;13.48;6.85;;;19.00;59.10;;;;;;5039042;28;20028;-77
2024/03/20 11:35:45;;;;;;;13.55;7.65;;;19.00;58.90;;;;;;5037183;28;20029;-76
2024/03/20 11:38:18;;;;;;;12.52;6.47;;;18.80;57.90;;;;;;5041236;28;20032;-76
2024/03/20 11:40:45;;;;;;;12.75;6.95;;;18.60;59.70;;;;;;5035779;28;20032;-77
2024/03/20 11:43:12;;;;;;;15.23;8.07;;;18.60;60.00;;;;;;5039993;28;20406;-79
2024/03/20 11:45:38;;;;;;;12.23;6.82;;;18.80;59.20;;;;;;5041228;28;20036;-78
2024/03/20 11:48:04;;;;;;;18.02;7.53;;;18.90;59.50;;;;;;5041078;28;20044;-77
2024/03/20 11:50:30;;;;;;;12.20;7.28;;;19.00;59.90;;;;;;5037551;28;20461;-75
2024/03/20 11:52:56;;;;;;;10.95;6.40;;;19.10;59.30;;;;;;5038993;28;20051;-76
2024/03/20 11:55:22;;;;;;;11.80;7.30;;;19.10;59.40;;;;;;5039922;28;20033;-76
2024/03/20 11:57:48;;;;;;;13.27;7.15;;;19.20;58.80;;;;;;5038763;28;20034;-76
2024/03/20 12:00:17;;;;;;;14.15;7.38;;;19.20;58.70;;;;;;5039289;28;20090;-75
2024/03/20 12:02:45;;;;;;;15.00;7.53;;;19.20;58.90;;;;;;5040372;28;20705;-78
2024/03/20 12:05:12;;;;;;;12.70;7.03;;;19.20;59.70;;;;;;5037454;28;20087;-77
2024/03/20 12:07:39;;;;;;;14.70;7.57;;;19.20;59.70;;;;;;5039215;28;20333;-77
2024/03/20 12:10:26;;;;;;;16.55;7.85;;;19.10;60.50;;;;;;5039993;28;20025;-77
2024/03/20 12:12:52;;;;;;;12.48;7.75;;;19.10;60.00;;;;;;5038097;28;20051;-77
2024/03/20 12:15:21;;;;;;;11.40;6.78;;;19.10;58.20;;;;;;5040114;28;20033;-78
2024/03/20 12:17:51;;;;;;;16.05;7.18;;;19.10;58.90;;;;;;5038223;28;20033;-79
2024/03/20 12:20:16;;;;;;;11.52;6.93;;;19.10;59.80;;;;;;5039008;28;20064;-75
2024/03/20 12:22:44;;;;;;;13.50;7.18;;;19.00;58.90;;;;;;5036738;28;20112;-76
2024/03/20 12:25:12;;;;;;;13.25;6.80;;;18.90;59.00;;;;;;5038734;28;20932;-76
2024/03/20 12:27:38;;;;;;;13.63;6.85;;;18.80;58.50;;;;;;5039504;28;20029;-76
2024/03/20 12:30:05;;;;;;;9.50;5.50;;;18.70;59.50;;;;;;5036668;28;20044;-75
2024/03/20 12:32:32;;;;;;;10.88;6.28;;;18.70;59.60;;;;;;5041161;28;20033;-75
2024/03/20 12:34:59;;;;;;;11.98;6.38;;;18.70;59.80;;;;;;5041264;28;20041;-75
2024/03/20 12:37:29;;;;;;;12.93;6.28;;;18.70;61.30;;;;;;5042885;28;20063;-75
2024/03/20 12:39:55;;;;;;;9.38;5.28;;;18.80;60.60;;;;;;5040231;28;20032;-79
2024/03/20 12:42:22;;;;;;;14.65;6.18;;;18.80;59.10;;;;;;5040900;28;20904;-75